Time;durP1;ratioP1;P1;durP2;ratioP2;P2;SDS_P1;SDS_P2;PMS_P1;PMS_P2;Temp;Humidity;BMP_temperature;BMP_pressure;BME280_temperature;BME280_humidity;BME280_pressure;Samples;Min_cycle;Max_cycle;Signal;HPM_P1;HPM_P2
2021/04/08 00:00:33;;;;;;;48.67;45.88;;;22.80;99.90;;;;;;5073155;28;20016;-68
2021/04/08 00:03:00;;;;;;;47.30;44.38;;;22.90;99.90;;;;;;5073154;28;20362;-68
2021/04/08 00:05:27;;;;;;;44.20;41.70;;;23.00;99.90;;;;;;5072598;28;20025;-68
2021/04/08 00:07:55;;;;;;;44.22;41.63;;;22.90;99.90;;;;;;5073275;28;20028;-69
2021/04/08 00:10:22;;;;;;;45.17;42.35;;;23.00;99.90;;;;;;5073156;28;20384;-69
2021/04/08 00:12:49;;;;;;;41.00;38.67;;;23.20;99.90;;;;;;5073061;28;20044;-69
2021/04/08 00:15:17;;;;;;;40.65;38.25;;;23.30;99.90;;;;;;5073146;28;20103;-70
2021/04/08 00:17:45;;;;;;;40.08;37.58;;;23.00;99.90;;;;;;5073097;28;20017;-70
2021/04/08 00:20:17;;;;;;;37.55;35.25;;;23.10;99.90;;;;;;5073043;28;20416;-69
2021/04/08 00:22:45;;;;;;;37.75;35.45;;;23.30;99.90;;;;;;5073300;28;20438;-70
2021/04/08 00:25:13;;;;;;;36.55;34.35;;;23.50;99.90;;;;;;5073235;28;20028;-69
2021/04/08 00:27:42;;;;;;;38.72;36.53;;;23.60;99.90;;;;;;5073033;28;20077;-69
2021/04/08 00:30:10;;;;;;;39.70;37.63;;;23.70;99.90;;;;;;5072685;28;20051;-69
2021/04/08 00:32:38;;;;;;;38.10;36.10;;;23.70;99.90;;;;;;5071438;28;20085;-69
2021/04/08 00:35:06;;;;;;;37.30;35.17;;;23.70;99.90;;;;;;5073016;28;20071;-69
2021/04/08 00:37:34;;;;;;;37.83;35.72;;;23.80;99.90;;;;;;5072964;28;20103;-69
2021/04/08 00:40:01;;;;;;;36.95;34.72;;;23.70;99.90;;;;;;5072896;28;20067;-69
2021/04/08 00:42:28;;;;;;;34.05;32.20;;;23.60;99.90;;;;;;5072797;28;20035;-70
2021/04/08 00:44:56;;;;;;;35.55;33.80;;;23.50;99.90;;;;;;5073176;28;20021;-70
2021/04/08 00:47:23;;;;;;;35.83;33.70;;;23.40;99.90;;;;;;5072853;28;20013;-70
2021/04/08 00:49:50;;;;;;;36.28;34.35;;;23.30;99.90;;;;;;5072871;28;20016;-70
2021/04/08 00:52:18;;;;;;;38.30;36.17;;;23.20;99.90;;;;;;5072964;28;20029;-70
2021/04/08 00:54:46;;;;;;;35.00;33.10;;;23.20;99.90;;;;;;5073144;28;20020;-70
2021/04/08 00:57:14;;;;;;;35.30;33.50;;;23.20;99.90;;;;;;5076782;28;20013;-70
2021/04/08 00:59:41;;;;;;;34.17;32.38;;;23.10;99.90;;;;;;5076534;28;20059;-69
2021/04/08 01:02:10;;;;;;;36.45;34.55;;;23.00;99.90;;;;;;5076373;28;20032;-70
2021/04/08 01:04:37;;;;;;;31.38;29.77;;;23.40;99.90;;;;;;5076672;28;20430;-70
2021/04/08 01:07:05;;;;;;;29.08;27.45;;;23.90;99.90;;;;;;5076382;28;20077;-69
2021/04/08 01:09:32;;;;;;;27.83;26.15;;;24.20;99.90;;;;;;5076203;28;20020;-69
2021/04/08 01:12:00;;;;;;;30.20;28.70;;;24.40;99.90;;;;;;5076248;28;20024;-69
2021/04/08 01:14:27;;;;;;;29.50;27.70;;;24.60;99.90;;;;;;5076237;28;20024;-70
2021/04/08 01:17:04;;;;;;;27.38;25.95;;;25.00;99.90;;;;;;5076236;28;20094;-70
2021/04/08 01:20:07;;;;;;;27.05;25.55;;;25.00;99.90;;;;;;5076272;28;20095;-70
2021/04/08 01:23:09;;;;;;;26.75;25.15;;;25.00;99.90;;;;;;5076575;28;20346;-69
2021/04/08 01:26:26;;;;;;;24.70;23.30;;;24.70;99.90;;;;;;5076734;28;20078;-70
2021/04/08 01:29:29;;;;;;;23.83;22.63;;;24.70;99.90;;;;;;5074077;28;20116;-69
2021/04/08 01:31:57;;;;;;;20.95;19.67;;;25.00;99.90;;;;;;5075841;28;20037;-69
2021/04/08 01:34:27;;;;;;;18.80;17.85;;;25.00;99.90;;;;;;5075909;28;20025;-70
2021/04/08 01:36:59;;;;;;;18.50;17.70;;;25.20;99.90;;;;;;5075935;28;20385;-71
2021/04/08 01:39:28;;;;;;;18.30;17.40;;;25.40;99.90;;;;;;5076117;28;20112;-71
2021/04/08 01:41:57;;;;;;;19.00;18.02;;;25.30;99.90;;;;;;5075815;28;20481;-71
2021/04/08 01:44:25;;;;;;;18.70;17.67;;;25.70;99.90;;;;;;5075723;28;20028;-71
2021/04/08 01:47:10;;;;;;;19.40;18.30;;;25.90;99.90;;;;;;5075704;28;20017;-71
2021/04/08 01:49:41;;;;;;;18.58;17.60;;;25.90;99.90;;;;;;5076260;28;20031;-71
2021/04/08 01:52:12;;;;;;;20.15;18.80;;;25.70;99.90;;;;;;5076001;28;20508;-71
2021/04/08 01:54:43;;;;;;;19.77;18.27;;;25.40;99.90;;;;;;5075584;28;20046;-71
2021/04/08 01:57:13;;;;;;;18.83;17.73;;;25.70;99.90;;;;;;5075611;28;20025;-70
2021/04/08 01:59:43;;;;;;;19.90;18.67;;;25.80;99.90;;;;;;5075560;28;20545;-70
2021/04/08 02:02:12;;;;;;;;;;;26.20;99.90;;;;;;5076341;28;20051;-71
2021/04/08 02:04:41;;;;;;;19.23;18.00;;;26.30;99.90;;;;;;5075446;28;19999;-71
2021/04/08 02:07:08;;;;;;;21.33;19.70;;;26.20;99.90;;;;;;5075120;28;20474;-71
2021/04/08 02:09:39;;;;;;;19.10;18.00;;;26.70;99.90;;;;;;5075245;28;20028;-71
2021/04/08 02:12:12;;;;;;;19.98;18.58;;;26.90;99.90;;;;;;5075574;28;20373;-72
2021/04/08 02:14:42;;;;;;;17.60;16.50;;;27.00;99.90;;;;;;5075090;28;20119;-71
2021/04/08 02:17:11;;;;;;;15.60;14.80;;;26.90;99.90;;;;;;5075169;28;20028;-72
2021/04/08 02:19:39;;;;;;;15.20;14.37;;;26.90;99.90;;;;;;5075111;28;20032;-72
2021/04/08 02:22:08;;;;;;;14.80;14.00;;;26.70;99.90;;;;;;5075115;28;20020;-71
2021/04/08 02:24:37;;;;;;;14.32;13.52;;;26.60;99.90;;;;;;5075747;28;20037;-71
2021/04/08 02:27:05;;;;;;;13.95;13.23;;;26.60;99.90;;;;;;5075262;28;20024;-72
2021/04/08 02:29:33;;;;;;;13.93;13.05;;;26.50;99.90;;;;;;5074828;28;20044;-72
2021/04/08 02:32:02;;;;;;;13.45;12.75;;;26.70;99.90;;;;;;5075129;28;20040;-71
2021/04/08 02:34:30;;;;;;;14.43;13.13;;;26.90;99.90;;;;;;5073416;28;20036;-71
2021/04/08 02:36:57;;;;;;;14.50;13.55;;;26.70;99.90;;;;;;5073335;28;20485;-72
2021/04/08 02:39:24;;;;;;;12.40;11.80;;;26.70;99.90;;;;;;5074705;28;20559;-71
2021/04/08 02:41:52;;;;;;;12.60;11.80;;;26.70;99.90;;;;;;5074768;28;20021;-71
2021/04/08 02:44:20;;;;;;;12.48;11.70;;;26.70;99.90;;;;;;5074582;28;20031;-71
2021/04/08 02:46:47;;;;;;;12.52;11.77;;;26.70;99.90;;;;;;5075034;28;20021;-71
2021/04/08 02:49:15;;;;;;;12.07;11.57;;;26.70;99.90;;;;;;5074478;28;20031;-71
2021/04/08 02:51:56;;;;;;;13.38;12.57;;;26.80;99.90;;;;;;5074458;28;20074;-71
2021/04/08 02:54:29;;;;;;;12.20;11.65;;;26.90;99.90;;;;;;5074641;28;20052;-71
2021/04/08 02:57:01;;;;;;;12.13;11.52;;;26.90;99.90;;;;;;5073106;28;20020;-71
2021/04/08 02:59:58;;;;;;;10.90;10.40;;;26.70;99.90;;;;;;5074536;28;20108;-69
2021/04/08 03:02:29;;;;;;;10.82;10.10;;;26.30;99.90;;;;;;5072108;28;20028;-69
2021/04/08 03:04:59;;;;;;;11.07;10.48;;;26.50;99.90;;;;;;5074142;28;20044;-69
2021/04/08 03:07:33;;;;;;;11.48;10.77;;;26.40;99.90;;;;;;5074167;28;20032;-69
2021/04/08 03:10:05;;;;;;;11.55;10.95;;;26.30;99.90;;;;;;5074124;28;20016;-69
2021/04/08 03:12:35;;;;;;;10.70;10.20;;;26.50;99.90;;;;;;5073986;28;20029;-69
2021/04/08 03:15:05;;;;;;;;;;;26.30;99.90;;;;;;5074478;28;20023;-69
2021/04/08 03:17:39;;;;;;;10.63;10.05;;;26.50;99.90;;;;;;5073392;28;19908;-69
2021/04/08 03:20:08;;;;;;;10.82;10.23;;;26.60;99.90;;;;;;5073899;28;20028;-70
2021/04/08 03:22:38;;;;;;;10.95;10.35;;;26.70;99.90;;;;;;5073915;28;20413;-69
2021/04/08 03:25:09;;;;;;;10.50;9.90;;;26.50;99.90;;;;;;5073692;28;20025;-69
2021/04/08 03:27:40;;;;;;;10.52;9.90;;;26.80;99.90;;;;;;5073669;28;20039;-69
2021/04/08 03:30:11;;;;;;;9.32;8.93;;;26.70;99.90;;;;;;5073731;28;20063;-69
2021/04/08 03:32:39;;;;;;;10.38;9.75;;;26.60;99.90;;;;;;5073321;28;20518;-69
2021/04/08 03:35:11;;;;;;;10.20;9.70;;;26.30;99.90;;;;;;5073997;28;20350;-69
2021/04/08 03:37:41;;;;;;;9.48;8.98;;;26.30;99.90;;;;;;5073393;28;20017;-70
2021/04/08 03:40:11;;;;;;;10.77;10.18;;;26.20;99.90;;;;;;5073396;28;20385;-70
2021/04/08 03:42:39;;;;;;;10.63;10.13;;;26.10;99.90;;;;;;5073380;28;20024;-70
2021/04/08 03:45:12;;;;;;;11.07;10.57;;;26.30;99.90;;;;;;5072314;28;20031;-70
2021/04/08 03:47:43;;;;;;;10.30;9.80;;;26.40;99.90;;;;;;5072679;28;20028;-73
2021/04/08 03:50:15;;;;;;;11.05;10.40;;;26.40;99.90;;;;;;5073077;28;20031;-72
2021/04/08 03:52:44;;;;;;;11.30;10.40;;;26.40;99.90;;;;;;5073279;28;20377;-73
2021/04/08 03:55:13;;;;;;;10.85;10.18;;;26.50;99.90;;;;;;5073274;28;20086;-72
2021/04/08 03:57:46;;;;;;;10.98;10.27;;;26.60;99.90;;;;;;5073229;28;20464;-73
2021/04/08 04:00:14;;;;;;;10.93;10.40;;;26.60;99.90;;;;;;5072369;28;20020;-73
2021/04/08 04:02:43;;;;;;;10.38;9.68;;;26.60;99.90;;;;;;5055351;28;20021;-73
2021/04/08 04:05:13;;;;;;;9.80;9.20;;;26.80;99.90;;;;;;5073265;28;20052;-73
2021/04/08 04:07:50;;;;;;;11.00;10.15;;;26.70;99.90;;;;;;5073232;28;20031;-72
2021/04/08 04:10:22;;;;;;;9.90;9.10;;;26.70;99.90;;;;;;5073101;28;20066;-72
2021/04/08 04:12:52;;;;;;;9.45;8.85;;;26.50;99.90;;;;;;5071798;28;20384;-73
2021/04/08 04:15:20;;;;;;;10.80;10.18;;;25.80;99.90;;;;;;5073138;28;20381;-73
2021/04/08 04:17:48;;;;;;;10.10;9.52;;;26.10;99.90;;;;;;5073167;28;20111;-73
2021/04/08 04:20:16;;;;;;;9.63;9.10;;;26.00;99.90;;;;;;5072997;28;20016;-73
2021/04/08 04:22:43;;;;;;;10.65;9.90;;;26.30;99.90;;;;;;5073204;28;20480;-73
2021/04/08 04:25:13;;;;;;;9.60;9.02;;;26.50;99.90;;;;;;5073018;28;20433;-73
2021/04/08 04:27:41;;;;;;;9.93;9.43;;;26.60;99.90;;;;;;5072665;28;20112;-73
2021/04/08 04:30:09;;;;;;;10.20;9.50;;;26.60;99.90;;;;;;5072718;28;20143;-73
2021/04/08 04:32:37;;;;;;;10.15;9.50;;;26.60;99.90;;;;;;5077000;28;20028;-73
2021/04/08 04:35:05;;;;;;;9.48;9.00;;;26.00;99.90;;;;;;5076988;28;20487;-73
2021/04/08 04:37:35;;;;;;;9.40;9.00;;;26.10;99.90;;;;;;5076994;28;20023;-73
2021/04/08 04:40:06;;;;;;;9.20;8.70;;;26.20;99.90;;;;;;5076877;28;20027;-75
2021/04/08 04:42:34;;;;;;;11.15;10.13;;;26.40;99.90;;;;;;5076739;28;20082;-72
2021/04/08 04:45:04;;;;;;;10.80;9.93;;;26.50;99.90;;;;;;5076772;28;20020;-72
2021/04/08 04:47:32;;;;;;;10.45;9.88;;;26.20;99.90;;;;;;5075345;28;20485;-70
2021/04/08 04:49:59;;;;;;;11.40;10.50;;;25.90;99.90;;;;;;5076702;28;20047;-70
2021/04/08 04:52:26;;;;;;;11.23;10.50;;;25.90;99.90;;;;;;5076540;28;20020;-70
2021/04/08 04:54:55;;;;;;;11.00;10.20;;;26.00;99.90;;;;;;5076347;28;20020;-71
2021/04/08 04:57:22;;;;;;;10.15;9.75;;;26.00;99.90;;;;;;5076187;28;20020;-72
2021/04/08 04:59:49;;;;;;;9.75;9.25;;;25.70;99.90;;;;;;5076413;28;20485;-71
2021/04/08 05:02:17;;;;;;;9.63;9.02;;;25.60;99.90;;;;;;5076482;28;20111;-70
2021/04/08 05:04:44;;;;;;;9.98;9.27;;;25.70;99.90;;;;;;5076406;28;20042;-70
2021/04/08 05:07:11;;;;;;;11.98;10.65;;;25.70;99.90;;;;;;5076878;28;20025;-71
2021/04/08 05:09:39;;;;;;;10.18;9.57;;;25.90;99.90;;;;;;5074871;28;20020;-70
2021/04/08 05:12:06;;;;;;;10.32;9.70;;;25.90;99.90;;;;;;5076209;28;20541;-71
2021/04/08 05:14:34;;;;;;;10.25;9.45;;;26.00;99.90;;;;;;5076211;28;20056;-70
2021/04/08 05:17:01;;;;;;;21.45;12.35;;;25.70;99.90;;;;;;5076174;28;20013;-66
2021/04/08 05:19:31;;;;;;;10.55;9.80;;;25.60;99.90;;;;;;5076076;28;20100;-67
2021/04/08 05:21:58;;;;;;;10.10;9.50;;;25.50;99.90;;;;;;5076044;28;20500;-67
2021/04/08 05:24:26;;;;;;;9.70;9.02;;;25.40;99.90;;;;;;5076043;28;20021;-67
2021/04/08 05:26:53;;;;;;;9.65;9.00;;;25.20;99.90;;;;;;5076005;28;20025;-67
2021/04/08 05:29:20;;;;;;;9.90;9.40;;;25.30;99.90;;;;;;5075811;28;20024;-67
2021/04/08 05:31:48;;;;;;;9.07;8.70;;;25.20;99.90;;;;;;5075939;28;20028;-67
2021/04/08 05:34:15;;;;;;;9.27;8.80;;;24.90;99.90;;;;;;5075783;28;20103;-68
2021/04/08 05:36:42;;;;;;;9.77;9.30;;;25.00;99.90;;;;;;5075875;28;20047;-67
2021/04/08 05:39:10;;;;;;;10.45;9.93;;;25.00;99.90;;;;;;5075694;28;20465;-66
2021/04/08 05:41:37;;;;;;;10.32;9.93;;;25.10;99.90;;;;;;5074946;28;20025;-67
2021/04/08 05:44:05;;;;;;;10.15;9.75;;;24.80;99.90;;;;;;5075618;28;20056;-67
2021/04/08 05:46:32;;;;;;;12.05;11.02;;;25.00;99.90;;;;;;5075540;28;20082;-71
2021/04/08 05:48:59;;;;;;;10.60;10.10;;;24.90;99.90;;;;;;5075345;28;20025;-63
2021/04/08 05:51:27;;;;;;;10.10;9.50;;;24.80;99.90;;;;;;5075619;28;20024;-63
2021/04/08 05:53:55;;;;;;;10.38;9.80;;;24.80;99.90;;;;;;5075477;28;20023;-63
2021/04/08 05:56:22;;;;;;;10.07;9.60;;;24.70;99.90;;;;;;5074210;28;20016;-63
2021/04/08 05:58:49;;;;;;;10.48;9.95;;;24.70;99.90;;;;;;5075475;28;20048;-63
2021/04/08 06:01:16;;;;;;;10.15;9.70;;;24.70;99.90;;;;;;5075958;28;20020;-64
2021/04/08 06:03:44;;;;;;;11.00;10.30;;;24.70;99.90;;;;;;5075630;28;20496;-64
2021/04/08 06:06:11;;;;;;;10.80;10.20;;;24.70;99.90;;;;;;5075278;28;20048;-64
2021/04/08 06:08:39;;;;;;;9.80;9.20;;;24.60;99.90;;;;;;5075140;28;20066;-64
2021/04/08 06:11:06;;;;;;;10.07;9.57;;;24.60;99.90;;;;;;5075250;28;20028;-64
2021/04/08 06:13:33;;;;;;;9.43;8.82;;;24.50;99.90;;;;;;5075102;28;20107;-64
2021/04/08 06:16:01;;;;;;;9.88;9.40;;;24.40;99.90;;;;;;5075023;28;20025;-63
2021/04/08 06:18:28;;;;;;;10.25;9.52;;;24.50;99.90;;;;;;5075065;28;20028;-63
2021/04/08 06:20:55;;;;;;;10.32;9.55;;;24.40;99.90;;;;;;5075762;28;20021;-62
2021/04/08 06:23:23;;;;;;;10.20;9.70;;;24.40;99.90;;;;;;5075098;28;20591;-63
2021/04/08 06:25:50;;;;;;;10.40;10.00;;;24.30;99.90;;;;;;5074720;28;20029;-62
2021/04/08 06:28:18;;;;;;;10.18;9.77;;;24.00;99.90;;;;;;5074649;28;20028;-63
2021/04/08 06:30:46;;;;;;;11.23;10.70;;;23.90;99.90;;;;;;5074542;28;20040;-64
2021/04/08 06:33:13;;;;;;;11.95;11.20;;;23.80;99.90;;;;;;5074521;28;20032;-63
2021/04/08 06:35:41;;;;;;;11.75;11.25;;;23.70;99.90;;;;;;5074639;28;20103;-63
2021/04/08 06:38:09;;;;;;;12.88;12.10;;;23.70;99.90;;;;;;5074513;28;20435;-63
2021/04/08 06:40:36;;;;;;;12.90;12.23;;;23.60;99.90;;;;;;5074590;28;20503;-64
2021/04/08 06:43:04;;;;;;;13.02;12.38;;;23.40;99.90;;;;;;5074391;28;20488;-63
2021/04/08 06:45:33;;;;;;;13.07;12.38;;;23.40;99.90;;;;;;5074372;28;20502;-63
2021/04/08 06:48:20;;;;;;;13.45;12.85;;;23.30;99.90;;;;;;5074000;28;20104;-63
2021/04/08 06:50:51;;;;;;;14.98;14.20;;;23.20;99.90;;;;;;5074101;28;20082;-63
2021/04/08 06:53:19;;;;;;;16.10;15.30;;;23.10;99.90;;;;;;5073120;28;20032;-63
2021/04/08 06:55:48;;;;;;;18.38;17.38;;;23.10;99.90;;;;;;5074133;28;20024;-64
2021/04/08 06:58:16;;;;;;;18.35;17.45;;;22.90;99.90;;;;;;5074043;28;20025;-64
2021/04/08 07:00:44;;;;;;;18.08;17.17;;;22.90;99.90;;;;;;5072748;28;20034;-63
2021/04/08 07:03:12;;;;;;;17.67;16.77;;;22.80;99.90;;;;;;5073728;28;20051;-63
2021/04/08 07:05:39;;;;;;;18.75;17.80;;;22.70;99.90;;;;;;5073945;28;20017;-63
2021/04/08 07:08:07;;;;;;;18.00;17.30;;;22.50;99.90;;;;;;5073778;28;20029;-63
2021/04/08 07:10:34;;;;;;;17.52;16.67;;;22.40;99.90;;;;;;5073879;28;20020;-63
2021/04/08 07:13:01;;;;;;;18.40;17.45;;;22.40;99.90;;;;;;5073680;28;20063;-63
2021/04/08 07:15:29;;;;;;;18.77;17.85;;;22.30;99.90;;;;;;5072406;28;20066;-63
2021/04/08 07:17:58;;;;;;;18.90;18.10;;;22.20;99.90;;;;;;5073441;28;20038;-63
2021/04/08 07:20:25;;;;;;;20.40;19.50;;;22.10;99.90;;;;;;5073455;28;20427;-64
2021/04/08 07:23:09;;;;;;;20.27;19.27;;;22.00;99.90;;;;;;5073544;28;20025;-63
2021/04/08 07:25:36;;;;;;;21.02;19.92;;;22.10;99.90;;;;;;5073627;28;20016;-63
2021/04/08 07:28:32;;;;;;;20.90;20.05;;;22.00;99.90;;;;;;5073522;28;20020;-63
2021/04/08 07:31:30;;;;;;;22.48;21.40;;;22.00;99.90;;;;;;5073146;28;20045;-63
2021/04/08 07:33:59;;;;;;;25.17;24.08;;;21.80;99.90;;;;;;5068948;28;20507;-63
2021/04/08 07:36:27;;;;;;;27.33;26.13;;;21.70;99.90;;;;;;5073160;28;20100;-63
2021/04/08 07:38:56;;;;;;;27.92;26.50;;;21.60;99.90;;;;;;5073330;28;20085;-63
2021/04/08 07:41:35;;;;;;;32.63;31.13;;;21.50;99.90;;;;;;5073539;28;20147;-64
2021/04/08 07:44:12;;;;;;;34.30;32.72;;;21.50;99.90;;;;;;5073352;28;20381;-64
2021/04/08 07:46:44;;;;;;;39.08;37.17;;;21.40;99.90;;;;;;5073625;28;20021;-65
2021/04/08 07:49:32;;;;;;;40.92;38.67;;;21.30;99.90;;;;;;5073321;28;20505;-64
2021/04/08 07:52:20;;;;;;;46.22;43.72;;;21.20;99.90;;;;;;5073214;28;20386;-65
2021/04/08 07:55:10;;;;;;;44.13;42.00;;;21.20;99.90;;;;;;5073535;28;20020;-64
2021/04/08 07:57:52;;;;;;;46.97;44.35;;;21.20;99.90;;;;;;5073120;28;20028;-64
2021/04/08 08:00:26;;;;;;;49.22;46.22;;;21.10;99.90;;;;;;5073002;28;20024;-64
2021/04/08 08:02:55;;;;;;;50.65;48.05;;;21.10;99.90;;;;;;5073198;28;20025;-64
2021/04/08 08:05:37;;;;;;;46.95;44.40;;;21.00;99.90;;;;;;5073083;28;20017;-65
2021/04/08 08:08:14;;;;;;;47.60;45.10;;;21.00;99.90;;;;;;5072933;28;20024;-64
2021/04/08 08:10:55;;;;;;;47.78;45.28;;;21.00;99.90;;;;;;5072897;28;20440;-64
2021/04/08 08:13:29;;;;;;;;;;;21.00;99.90;;;;;;5073401;28;20469;-64
2021/04/08 08:15:57;;;;;;;49.42;46.58;;;21.00;99.90;;;;;;5072788;28;20299;-64
2021/04/08 08:18:38;;;;;;;50.03;47.30;;;20.90;99.90;;;;;;5072901;28;20019;-64
2021/04/08 08:21:11;;;;;;;50.33;47.63;;;20.80;99.90;;;;;;5072968;28;20023;-64
2021/04/08 08:23:40;;;;;;;52.80;49.90;;;20.80;99.90;;;;;;5071514;28;20033;-64
2021/04/08 08:26:38;;;;;;;54.42;51.55;;;20.70;99.90;;;;;;5073099;28;20029;-65
2021/04/08 08:29:11;;;;;;;57.20;54.13;;;20.60;99.90;;;;;;5073201;28;20020;-64
2021/04/08 08:31:49;;;;;;;56.25;53.25;;;20.60;99.90;;;;;;5072635;28;20071;-64
2021/04/08 08:34:21;;;;;;;54.38;51.50;;;20.60;99.90;;;;;;5072655;28;20031;-64
2021/04/08 08:37:02;;;;;;;55.78;52.67;;;20.60;99.90;;;;;;5073190;28;20423;-64
2021/04/08 08:39:49;;;;;;;54.60;51.58;;;20.40;99.90;;;;;;5072543;28;20024;-64
2021/04/08 08:42:19;;;;;;;55.58;52.47;;;20.40;99.90;;;;;;5072990;28;20062;-65
2021/04/08 08:44:47;;;;;;;55.80;52.40;;;20.40;99.90;;;;;;5072536;28;20028;-64
2021/04/08 08:47:17;;;;;;;55.15;52.05;;;20.30;99.90;;;;;;5072572;28;20039;-66
2021/04/08 08:50:10;;;;;;;53.17;49.85;;;20.20;99.90;;;;;;5072592;28;20024;-64
2021/04/08 08:52:50;;;;;;;53.33;50.13;;;20.20;99.90;;;;;;5071522;28;20117;-64
2021/04/08 08:55:20;;;;;;;54.60;51.43;;;20.10;99.90;;;;;;5072499;28;20036;-64
2021/04/08 08:57:52;;;;;;;54.78;51.58;;;20.10;99.90;;;;;;5072938;28;20024;-64
2021/04/08 09:00:20;;;;;;;57.08;53.75;;;20.10;99.90;;;;;;5072933;28;20029;-64
2021/04/08 09:02:48;;;;;;;57.92;53.92;;;20.00;99.90;;;;;;5072538;28;20021;-65
2021/04/08 09:05:19;;;;;;;58.17;54.88;;;20.00;99.90;;;;;;5072415;28;20096;-64
2021/04/08 09:07:50;;;;;;;57.22;54.00;;;20.00;99.90;;;;;;5072328;28;20028;-64
2021/04/08 09:10:39;;;;;;;58.60;55.20;;;19.90;99.90;;;;;;5072560;28;20386;-64
2021/04/08 09:13:07;;;;;;;55.97;52.88;;;19.90;99.90;;;;;;5072697;28;20039;-64
2021/04/08 09:15:37;;;;;;;58.65;55.25;;;19.90;99.90;;;;;;5072815;28;20070;-64
2021/04/08 09:18:09;;;;;;;56.72;53.63;;;19.90;99.90;;;;;;5076772;28;20021;-65
2021/04/08 09:20:39;;;;;;;56.40;53.25;;;19.90;99.90;;;;;;5076032;28;20544;-64
2021/04/08 09:23:09;;;;;;;57.10;53.78;;;19.90;99.90;;;;;;5076109;28;20477;-64
2021/04/08 09:25:57;;;;;;;58.88;55.35;;;19.80;99.90;;;;;;5075918;28;20515;-64
2021/04/08 09:28:31;;;;;;;60.40;56.97;;;19.80;99.90;;;;;;5075893;28;20029;-63
2021/04/08 09:33:42;;;;;;;60.53;57.05;;;19.70;99.90;;;;;;5075824;28;20078;-64
2021/04/08 09:36:21;;;;;;;58.28;54.55;;;19.60;99.90;;;;;;5075962;28;20021;-63
2021/04/08 09:39:12;;;;;;;61.67;58.08;;;19.70;99.90;;;;;;5075944;28;20025;-63
2021/04/08 09:41:57;;;;;;;61.95;58.25;;;19.60;99.90;;;;;;5075649;28;20032;-63
2021/04/08 09:44:27;;;;;;;59.38;55.72;;;19.60;99.90;;;;;;5075771;28;20061;-63
2021/04/08 09:47:01;;;;;;;60.38;56.78;;;19.60;99.90;;;;;;5075873;28;20024;-63
2021/04/08 09:49:41;;;;;;;63.45;59.58;;;19.60;99.90;;;;;;5075544;28;20031;-64
2021/04/08 09:52:09;;;;;;;64.53;60.58;;;19.60;99.90;;;;;;5075479;28;20497;-64
2021/04/08 09:54:54;;;;;;;63.83;60.10;;;19.60;99.90;;;;;;5075726;28;20024;-64
2021/04/08 09:57:41;;;;;;;65.63;61.72;;;19.60;99.90;;;;;;5075431;28;20479;-64
2021/04/08 10:00:14;;;;;;;66.63;62.60;;;19.60;99.90;;;;;;5075323;28;20032;-63
2021/04/08 10:03:04;;;;;;;67.47;63.45;;;19.50;99.90;;;;;;5075417;28;20024;-63
2021/04/08 10:05:32;;;;;;;69.55;65.35;;;19.50;99.90;;;;;;5075345;28;20099;-64
2021/04/08 10:08:00;;;;;;;71.93;67.78;;;19.40;99.90;;;;;;5075201;28;20066;-64
2021/04/08 10:10:37;;;;;;;73.47;69.07;;;19.30;99.90;;;;;;5075210;28;20020;-64
2021/04/08 10:13:25;;;;;;;73.90;69.55;;;19.30;99.90;;;;;;5075296;28;20047;-64
2021/04/08 10:15:59;;;;;;;72.28;68.13;;;19.30;99.90;;;;;;5075620;28;20029;-64
2021/04/08 10:18:33;;;;;;;73.85;69.55;;;19.30;99.90;;;;;;5075646;28;20351;-64
2021/04/08 10:21:07;;;;;;;69.50;65.55;;;19.20;99.90;;;;;;5075071;28;20051;-64
2021/04/08 10:23:34;;;;;;;71.28;67.05;;;19.20;99.90;;;;;;5073567;28;20448;-64
2021/04/08 10:26:05;;;;;;;74.63;70.30;;;19.10;99.90;;;;;;5075412;28;20081;-63
2021/04/08 10:28:41;;;;;;;74.70;70.47;;;19.10;99.90;;;;;;5074806;28;20031;-63
2021/04/08 10:31:17;;;;;;;75.35;70.93;;;19.10;99.90;;;;;;5074577;28;20058;-64
2021/04/08 10:33:52;;;;;;;73.05;68.65;;;19.10;99.90;;;;;;5075234;28;20016;-63
2021/04/08 10:36:54;;;;;;;71.88;67.47;;;19.10;99.90;;;;;;5075057;28;20052;-64
2021/04/08 10:39:29;;;;;;;72.10;67.75;;;19.10;99.90;;;;;;5073294;28;20017;-63
2021/04/08 10:41:58;;;;;;;73.65;69.07;;;19.10;99.90;;;;;;5073316;28;20035;-63
2021/04/08 10:44:31;;;;;;;74.68;70.13;;;19.10;99.90;;;;;;5075078;28;20034;-63
2021/04/08 10:47:12;;;;;;;77.68;72.97;;;19.00;99.90;;;;;;5074496;28;20560;-63
2021/04/08 10:49:55;;;;;;;78.97;74.57;;;19.00;99.90;;;;;;5074299;28;20074;-64
2021/04/08 10:52:34;;;;;;;80.30;75.55;;;18.90;99.90;;;;;;5074309;28;20035;-63
2021/04/08 10:55:08;;;;;;;83.68;78.68;;;18.90;99.90;;;;;;5074099;28;20082;-64
2021/04/08 10:57:35;;;;;;;82.85;78.05;;;18.90;99.90;;;;;;5075117;28;20024;-64
2021/04/08 11:00:06;;;;;;;87.50;82.30;;;18.90;99.90;;;;;;5074223;28;20050;-64
2021/04/08 11:02:39;;;;;;;87.97;82.95;;;18.90;99.90;;;;;;5072914;28;20085;-65
2021/04/08 11:05:14;;;;;;;88.03;82.95;;;18.90;99.90;;;;;;5074377;28;20046;-64
2021/04/08 11:07:44;;;;;;;85.20;80.40;;;18.90;99.90;;;;;;5074733;28;20020;-63
2021/04/08 11:10:14;;;;;;;81.80;77.20;;;18.90;99.90;;;;;;5073918;28;20028;-63
2021/04/08 11:12:41;;;;;;;83.07;78.53;;;18.90;99.90;;;;;;5074304;28;20021;-63
2021/04/08 11:15:12;;;;;;;86.57;81.88;;;18.90;99.90;;;;;;5072978;28;20477;-63
2021/04/08 11:17:47;;;;;;;87.35;82.75;;;18.90;99.90;;;;;;5074122;28;20354;-64
2021/04/08 11:20:17;;;;;;;84.85;80.00;;;18.90;99.90;;;;;;5073883;28;20021;-64
2021/04/08 11:22:47;;;;;;;84.68;79.88;;;18.90;99.90;;;;;;5074324;28;20362;-63
2021/04/08 11:25:16;;;;;;;85.55;80.85;;;18.90;99.90;;;;;;5073784;28;20016;-65
2021/04/08 11:27:53;;;;;;;82.95;78.13;;;18.90;99.90;;;;;;5073719;28;20384;-64
2021/04/08 11:30:26;;;;;;;83.63;78.93;;;18.90;99.90;;;;;;5073612;28;20049;-64
2021/04/08 11:32:55;;;;;;;85.68;80.78;;;18.90;99.90;;;;;;5073626;28;20073;-64
2021/04/08 11:35:24;;;;;;;83.30;78.50;;;18.80;99.90;;;;;;5073587;28;20385;-64
2021/04/08 11:38:04;;;;;;;82.63;77.82;;;18.80;99.90;;;;;;5073514;28;20366;-63
2021/04/08 11:40:32;;;;;;;87.05;82.10;;;18.80;99.90;;;;;;5073345;28;20024;-64
2021/04/08 11:42:59;;;;;;;88.35;83.40;;;18.80;99.90;;;;;;5073386;28;20028;-64
2021/04/08 11:45:31;;;;;;;86.32;81.25;;;18.80;99.90;;;;;;5073494;28;20024;-64
2021/04/08 11:48:05;;;;;;;83.15;78.35;;;18.80;99.90;;;;;;5073388;28;20048;-64
2021/04/08 11:50:45;;;;;;;84.38;79.30;;;18.70;99.90;;;;;;5073352;28;20095;-64
2021/04/08 11:53:14;;;;;;;84.82;79.97;;;18.70;99.90;;;;;;5073255;28;20047;-64
2021/04/08 11:55:46;;;;;;;86.75;81.68;;;18.70;99.90;;;;;;5073255;28;20456;-64
2021/04/08 11:58:28;;;;;;;88.03;82.85;;;18.60;99.90;;;;;;5073243;28;20048;-64
2021/04/08 12:01:08;;;;;;;87.75;82.85;;;18.60;99.90;;;;;;5073356;28;20111;-64
2021/04/08 12:03:38;;;;;;;87.10;82.10;;;18.60;99.90;;;;;;5073335;28;20016;-64
2021/04/08 12:06:15;;;;;;;87.60;82.47;;;18.60;99.90;;;;;;5074040;28;20033;-64
2021/04/08 12:08:53;;;;;;;82.90;77.93;;;18.60;99.90;;;;;;5073199;28;20024;-64
2021/04/08 12:11:22;;;;;;;88.30;83.07;;;18.60;99.90;;;;;;5073016;28;20412;-64
2021/04/08 12:14:04;;;;;;;89.97;84.80;;;18.60;99.90;;;;;;5073276;28;20058;-64
2021/04/08 12:16:32;;;;;;;94.38;89.00;;;18.60;99.90;;;;;;5071686;28;20028;-64
2021/04/08 12:19:00;;;;;;;89.80;84.70;;;18.60;99.90;;;;;;5072924;28;20021;-64
2021/04/08 12:21:29;;;;;;;88.07;83.18;;;18.60;99.90;;;;;;5072978;28;20047;-64
2021/04/08 12:23:57;;;;;;;91.90;86.70;;;18.60;99.90;;;;;;5072907;28;20045;-64
2021/04/08 12:26:35;;;;;;;92.03;86.60;;;18.60;99.90;;;;;;5073227;28;20024;-65
2021/04/08 12:29:02;;;;;;;89.75;84.65;;;18.50;99.90;;;;;;5073006;28;20444;-64
2021/04/08 12:31:30;;;;;;;91.03;85.93;;;18.50;99.90;;;;;;5072763;28;20056;-64
2021/04/08 12:33:57;;;;;;;91.38;86.38;;;18.40;99.90;;;;;;5072737;28;20032;-64
2021/04/08 12:36:25;;;;;;;92.63;87.15;;;18.40;99.90;;;;;;5072943;28;20422;-64
2021/04/08 12:38:52;;;;;;;90.38;85.18;;;18.40;99.90;;;;;;5072897;28;20024;-64
2021/04/08 12:41:20;;;;;;;90.78;85.45;;;18.30;99.90;;;;;;5072900;28;20020;-64
2021/04/08 12:43:47;;;;;;;92.40;87.35;;;18.30;99.90;;;;;;5071376;28;20028;-65
2021/04/08 12:46:14;;;;;;;89.22;84.03;;;18.30;99.90;;;;;;5072719;28;20465;-64
2021/04/08 12:48:42;;;;;;;86.75;81.85;;;18.30;99.90;;;;;;5072811;28;20095;-63
2021/04/08 12:51:09;;;;;;;85.13;80.15;;;18.30;99.90;;;;;;5074440;28;20028;-63
2021/04/08 12:53:36;;;;;;;87.57;82.57;;;18.30;99.90;;;;;;5076709;28;20051;-63
2021/04/08 12:56:04;;;;;;;87.50;82.55;;;18.30;99.90;;;;;;5076671;28;20044;-65